sensor_id;sensor_type;location;lat;lon;timestamp;pressure;altitude;pressure_sealevel;temperature;humidity
77227;BME280;66234;47.642;19.144;2024-01-15T00:00:52;99157.34;;;-1.64;100.00
77227;BME280;66234;47.642;19.144;2024-01-15T00:03:55;99146.34;;;-1.67;100.00
77227;BME280;66234;47.642;19.144;2024-01-15T00:06:57;99147.88;;;-1.57;100.00
77227;BME280;66234;47.642;19.144;2024-01-15T00:10:00;99133.28;;;-1.59;100.00
77227;BME280;66234;47.642;19.144;2024-01-15T00:13:03;99129.53;;;-1.57;100.00
77227;BME280;66234;47.642;19.144;2024-01-15T00:16:05;99122.97;;;-1.61;100.00
77227;BME280;66234;47.642;19.144;2024-01-15T00:19:08;99113.25;;;-1.69;100.00
77227;BME280;66234;47.642;19.144;2024-01-15T00:22:10;99114.59;;;-1.64;100.00
77227;BME280;66234;47.642;19.144;2024-01-15T00:25:13;99103.47;;;-1.58;100.00
77227;BME280;66234;47.642;19.144;2024-01-15T00:28:16;99108.31;;;-1.72;100.00
77227;BME280;66234;47.642;19.144;2024-01-15T00:31:18;99104.19;;;-1.82;100.00
77227;BME280;66234;47.642;19.144;2024-01-15T00:34:21;99091.75;;;-1.80;100.00
77227;BME280;66234;47.642;19.144;2024-01-15T00:37:24;99097.03;;;-1.72;100.00
77227;BME280;66234;47.642;19.144;2024-01-15T00:40:26;99089.19;;;-1.72;100.00
77227;BME280;66234;47.642;19.144;2024-01-15T00:43:29;99097.09;;;-1.56;100.00
77227;BME280;66234;47.642;19.144;2024-01-15T00:46:32;99088.41;;;-1.56;100.00
77227;BME280;66234;47.642;19.144;2024-01-15T00:49:34;99087.31;;;-1.46;100.00
77227;BME280;66234;47.642;19.144;2024-01-15T00:52:37;99075.84;;;-1.37;99.79
77227;BME280;66234;47.642;19.144;2024-01-15T00:55:40;99068.19;;;-1.30;99.64
77227;BME280;66234;47.642;19.144;2024-01-15T00:58:42;99065.22;;;-1.27;99.75
77227;BME280;66234;47.642;19.144;2024-01-15T01:01:45;99064.22;;;-1.26;99.14
77227;BME280;66234;47.642;19.144;2024-01-15T01:04:49;99055.75;;;-1.12;98.68
77227;BME280;66234;47.642;19.144;2024-01-15T01:07:51;99053.28;;;-1.14;98.54
77227;BME280;66234;47.642;19.144;2024-01-15T01:10:55;99052.78;;;-1.09;98.02
77227;BME280;66234;47.642;19.144;2024-01-15T01:13:59;99053.78;;;-1.10;98.44
77227;BME280;66234;47.642;19.144;2024-01-15T01:17:01;99064.28;;;-1.10;98.39
77227;BME280;66234;47.642;19.144;2024-01-15T01:20:04;99045.25;;;-1.12;98.55
77227;BME280;66234;47.642;19.144;2024-01-15T01:23:09;99047.06;;;-0.97;98.33
77227;BME280;66234;47.642;19.144;2024-01-15T01:26:15;99036.41;;;-0.79;97.88
77227;BME280;66234;47.642;19.144;2024-01-15T01:29:18;99033.28;;;-0.83;97.29
77227;BME280;66234;47.642;19.144;2024-01-15T01:32:20;99018.53;;;-0.92;98.11
77227;BME280;66234;47.642;19.144;2024-01-15T01:35:23;99020.50;;;-0.86;97.59
77227;BME280;66234;47.642;19.144;2024-01-15T01:38:25;99011.50;;;-0.91;97.85
77227;BME280;66234;47.642;19.144;2024-01-15T01:41:28;99004.44;;;-0.91;97.87
77227;BME280;66234;47.642;19.144;2024-01-15T01:44:30;98996.72;;;-1.00;98.04
77227;BME280;66234;47.642;19.144;2024-01-15T01:47:33;98999.50;;;-1.02;98.41
77227;BME280;66234;47.642;19.144;2024-01-15T01:50:36;98989.34;;;-1.05;98.80
77227;BME280;66234;47.642;19.144;2024-01-15T01:53:39;98979.34;;;-1.17;99.48
77227;BME280;66234;47.642;19.144;2024-01-15T01:56:42;98984.91;;;-1.20;100.00
77227;BME280;66234;47.642;19.144;2024-01-15T01:59:45;98986.91;;;-1.22;100.00
77227;BME280;66234;47.642;19.144;2024-01-15T02:02:49;98986.56;;;-1.27;100.00
77227;BME280;66234;47.642;19.144;2024-01-15T02:05:52;98987.06;;;-1.24;100.00
77227;BME280;66234;47.642;19.144;2024-01-15T02:08:55;98990.19;;;-1.28;100.00
77227;BME280;66234;47.642;19.144;2024-01-15T02:11:58;98979.53;;;-1.27;100.00
77227;BME280;66234;47.642;19.144;2024-01-15T02:15:00;98972.31;;;-1.25;100.00
77227;BME280;66234;47.642;19.144;2024-01-15T02:18:04;98964.09;;;-1.30;100.00
77227;BME280;66234;47.642;19.144;2024-01-15T02:21:08;98961.47;;;-1.30;100.00
77227;BME280;66234;47.642;19.144;2024-01-15T02:24:11;98963.28;;;-1.38;100.00
77227;BME280;66234;47.642;19.144;2024-01-15T02:27:14;98962.63;;;-1.48;100.00
77227;BME280;66234;47.642;19.144;2024-01-15T02:30:17;98972.28;;;-1.57;100.00
77227;BME280;66234;47.642;19.144;2024-01-15T02:33:20;98972.44;;;-1.58;100.00
77227;BME280;66234;47.642;19.144;2024-01-15T02:36:22;98964.25;;;-1.63;100.00
77227;BME280;66234;47.642;19.144;2024-01-15T02:39:25;98960.47;;;-1.69;100.00
77227;BME280;66234;47.642;19.144;2024-01-15T02:42:28;98948.34;;;-1.78;100.00
77227;BME280;66234;47.642;19.144;2024-01-15T02:45:30;98948.00;;;-1.83;100.00
77227;BME280;66234;47.642;19.144;2024-01-15T02:48:33;98948.34;;;-1.78;100.00
77227;BME280;66234;47.642;19.144;2024-01-15T02:51:37;98939.84;;;-1.72;100.00
77227;BME280;66234;47.642;19.144;2024-01-15T02:54:40;98946.72;;;-1.71;100.00
77227;BME280;66234;47.642;19.144;2024-01-15T02:57:42;98938.34;;;-1.83;100.00
77227;BME280;66234;47.642;19.144;2024-01-15T03:00:45;98924.09;;;-1.88;100.00
77227;BME280;66234;47.642;19.144;2024-01-15T03:03:48;98926.97;;;-2.07;100.00
77227;BME280;66234;47.642;19.144;2024-01-15T03:06:51;98922.53;;;-2.15;100.00
77227;BME280;66234;47.642;19.144;2024-01-15T03:09:54;98925.94;;;-2.22;100.00
77227;BME280;66234;47.642;19.144;2024-01-15T03:12:57;98930.03;;;-2.28;100.00
77227;BME280;66234;47.642;19.144;2024-01-15T03:16:00;98924.28;;;-2.31;100.00
77227;BME280;66234;47.642;19.144;2024-01-15T03:19:02;98920.00;;;-2.40;100.00
77227;BME280;66234;47.642;19.144;2024-01-15T03:22:05;98911.44;;;-2.50;100.00
77227;BME280;66234;47.642;19.144;2024-01-15T03:25:10;98904.75;;;-2.53;100.00
77227;BME280;66234;47.642;19.144;2024-01-15T03:28:13;98903.28;;;-2.47;100.00
77227;BME280;66234;47.642;19.144;2024-01-15T03:31:15;98902.66;;;-2.41;100.00
77227;BME280;66234;47.642;19.144;2024-01-15T03:34:18;98903.06;;;-2.20;100.00
77227;BME280;66234;47.642;19.144;2024-01-15T03:37:21;98890.00;;;-2.12;100.00
77227;BME280;66234;47.642;19.144;2024-01-15T03:40:23;98904.06;;;-2.13;100.00
77227;BME280;66234;47.642;19.144;2024-01-15T03:43:27;98911.94;;;-2.05;100.00
77227;BME280;66234;47.642;19.144;2024-01-15T03:46:29;98919.81;;;-1.97;100.00
77227;BME280;66234;47.642;19.144;2024-01-15T03:49:32;98912.91;;;-2.06;100.00
77227;BME280;66234;47.642;19.144;2024-01-15T03:52:35;98921.22;;;-2.19;100.00
77227;BME280;66234;47.642;19.144;2024-01-15T03:55:37;98928.06;;;-2.34;100.00
77227;BME280;66234;47.642;19.144;2024-01-15T03:58:40;98924.66;;;-2.26;100.00
77227;BME280;66234;47.642;19.144;2024-01-15T04:01:48;98908.88;;;-2.42;100.00
77227;BME280;66234;47.642;19.144;2024-01-15T04:04:51;98914.03;;;-2.58;100.00
77227;BME280;66234;47.642;19.144;2024-01-15T04:07:54;98900.94;;;-2.66;100.00
77227;BME280;66234;47.642;19.144;2024-01-15T04:10:56;98885.72;;;-2.71;100.00
77227;BME280;66234;47.642;19.144;2024-01-15T04:13:59;98884.31;;;-2.91;100.00
77227;BME280;66234;47.642;19.144;2024-01-15T04:17:01;98876.88;;;-3.03;100.00
77227;BME280;66234;47.642;19.144;2024-01-15T04:20:04;98861.59;;;-3.16;100.00
77227;BME280;66234;47.642;19.144;2024-01-15T04:23:07;98866.78;;;-3.24;100.00
77227;BME280;66234;47.642;19.144;2024-01-15T04:26:10;98871.19;;;-3.24;100.00
77227;BME280;66234;47.642;19.144;2024-01-15T04:29:12;98871.47;;;-3.27;100.00
77227;BME280;66234;47.642;19.144;2024-01-15T04:32:15;98870.25;;;-3.41;100.00
77227;BME280;66234;47.642;19.144;2024-01-15T04:35:17;98884.31;;;-3.42;100.00
77227;BME280;66234;47.642;19.144;2024-01-15T04:38:20;98889.13;;;-3.29;100.00
77227;BME280;66234;47.642;19.144;2024-01-15T04:41:22;98866.78;;;-3.24;100.00
77227;BME280;66234;47.642;19.144;2024-01-15T04:44:25;98876.31;;;-3.41;100.00
77227;BME280;66234;47.642;19.144;2024-01-15T04:47:27;98861.25;;;-3.47;100.00
77227;BME280;66234;47.642;19.144;2024-01-15T04:50:30;98876.84;;;-3.55;100.00
77227;BME280;66234;47.642;19.144;2024-01-15T04:53:34;98880.13;;;-3.53;100.00
77227;BME280;66234;47.642;19.144;2024-01-15T04:56:36;98886.09;;;-3.43;100.00
77227;BME280;66234;47.642;19.144;2024-01-15T04:59:39;98851.59;;;-3.46;100.00
77227;BME280;66234;47.642;19.144;2024-01-15T05:02:42;98846.13;;;-3.35;100.00
77227;BME280;66234;47.642;19.144;2024-01-15T05:05:45;98858.78;;;-3.48;100.00
77227;BME280;66234;47.642;19.144;2024-01-15T05:08:47;98872.44;;;-3.54;100.00
77227;BME280;66234;47.642;19.144;2024-01-15T05:11:50;98889.91;;;-3.55;100.00
77227;BME280;66234;47.642;19.144;2024-01-15T05:14:52;98884.09;;;-3.49;100.00
77227;BME280;66234;47.642;19.144;2024-01-15T05:17:55;98884.00;;;-3.57;100.00
77227;BME280;66234;47.642;19.144;2024-01-15T05:20:57;98883.94;;;-3.65;100.00
77227;BME280;66234;47.642;19.144;2024-01-15T05:24:00;98888.06;;;-3.62;100.00
77227;BME280;66234;47.642;19.144;2024-01-15T05:27:03;98882.16;;;-3.64;100.00
77227;BME280;66234;47.642;19.144;2024-01-15T05:30:06;98892.53;;;-3.72;100.00
77227;BME280;66234;47.642;19.144;2024-01-15T05:33:08;98887.31;;;-3.72;100.00
77227;BME280;66234;47.642;19.144;2024-01-15T05:36:11;98891.16;;;-3.59;100.00
77227;BME280;66234;47.642;19.144;2024-01-15T05:39:14;98882.88;;;-3.54;100.00
77227;BME280;66234;47.642;19.144;2024-01-15T05:42:16;98874.03;;;-3.61;100.00
77227;BME280;66234;47.642;19.144;2024-01-15T05:45:19;98884.63;;;-3.63;100.00
77227;BME280;66234;47.642;19.144;2024-01-15T05:48:22;98894.53;;;-3.66;100.00
77227;BME280;66234;47.642;19.144;2024-01-15T05:51:25;98883.41;;;-3.51;100.00
77227;BME280;66234;47.642;19.144;2024-01-15T05:54:29;98890.94;;;-3.48;100.00
77227;BME280;66234;47.642;19.144;2024-01-15T05:57:31;98878.50;;;-3.54;100.00
77227;BME280;66234;47.642;19.144;2024-01-15T06:00:34;98865.28;;;-3.52;100.00
77227;BME280;66234;47.642;19.144;2024-01-15T06:03:38;98853.97;;;-3.61;100.00
77227;BME280;66234;47.642;19.144;2024-01-15T06:06:41;98849.03;;;-3.64;100.00
77227;BME280;66234;47.642;19.144;2024-01-15T06:09:43;98835.38;;;-3.58;100.00
77227;BME280;66234;47.642;19.144;2024-01-15T06:12:46;98845.66;;;-3.56;100.00
77227;BME280;66234;47.642;19.144;2024-01-15T06:15:49;98837.38;;;-3.52;100.00
77227;BME280;66234;47.642;19.144;2024-01-15T06:18:51;98857.66;;;-3.46;100.00
77227;BME280;66234;47.642;19.144;2024-01-15T06:21:54;98843.44;;;-3.43;100.00
77227;BME280;66234;47.642;19.144;2024-01-15T06:24:57;98842.38;;;-3.33;100.00
77227;BME280;66234;47.642;19.144;2024-01-15T06:28:00;98844.03;;;-3.31;100.00
77227;BME280;66234;47.642;19.144;2024-01-15T06:31:03;98841.94;;;-3.28;100.00
77227;BME280;66234;47.642;19.144;2024-01-15T06:34:06;98843.56;;;-3.27;100.00
77227;BME280;66234;47.642;19.144;2024-01-15T06:37:08;98849.47;;;-3.25;100.00
77227;BME280;66234;47.642;19.144;2024-01-15T06:40:12;98864.69;;;-3.20;100.00
77227;BME280;66234;47.642;19.144;2024-01-15T06:43:19;98868.00;;;-3.10;100.00
77227;BME280;66234;47.642;19.144;2024-01-15T06:46:22;98870.91;;;-3.13;100.00
77227;BME280;66234;47.642;19.144;2024-01-15T06:49:25;98858.84;;;-3.14;100.00
77227;BME280;66234;47.642;19.144;2024-01-15T06:52:27;98856.69;;;-3.19;100.00
77227;BME280;66234;47.642;19.144;2024-01-15T06:55:30;98857.34;;;-3.17;100.00
77227;BME280;66234;47.642;19.144;2024-01-15T06:58:33;98862.41;;;-3.15;100.00
77227;BME280;66234;47.642;19.144;2024-01-15T07:01:36;98875.47;;;-3.15;100.00
77227;BME280;66234;47.642;19.144;2024-01-15T07:04:38;98876.16;;;-3.13;100.00
77227;BME280;66234;47.642;19.144;2024-01-15T07:07:45;98871.50;;;-3.02;100.00
77227;BME280;66234;47.642;19.144;2024-01-15T07:10:47;98882.59;;;-3.00;100.00
77227;BME280;66234;47.642;19.144;2024-01-15T07:13:50;98876.34;;;-3.07;100.00
77227;BME280;66234;47.642;19.144;2024-01-15T07:16:52;98884.66;;;-3.11;100.00
77227;BME280;66234;47.642;19.144;2024-01-15T07:19:55;98875.38;;;-3.06;100.00
77227;BME280;66234;47.642;19.144;2024-01-15T07:22:58;98883.69;;;-3.10;100.00
77227;BME280;66234;47.642;19.144;2024-01-15T07:26:00;98880.75;;;-3.07;100.00
77227;BME280;66234;47.642;19.144;2024-01-15T07:29:03;98892.72;;;-3.05;100.00
77227;BME280;66234;47.642;19.144;2024-01-15T07:32:06;98893.06;;;-3.00;100.00
77227;BME280;66234;47.642;19.144;2024-01-15T07:35:10;98899.88;;;-3.07;100.00
77227;BME280;66234;47.642;19.144;2024-01-15T07:38:13;98911.47;;;-3.09;100.00
77227;BME280;66234;47.642;19.144;2024-01-15T07:41:16;98930.72;;;-3.10;100.00
77227;BME280;66234;47.642;19.144;2024-01-15T07:44:19;98929.25;;;-3.13;100.00
77227;BME280;66234;47.642;19.144;2024-01-15T07:47:21;98934.03;;;-3.08;100.00
77227;BME280;66234;47.642;19.144;2024-01-15T07:50:25;98935.28;;;-3.12;100.00
77227;BME280;66234;47.642;19.144;2024-01-15T07:53:28;98925.88;;;-3.05;100.00
77227;BME280;66234;47.642;19.144;2024-01-15T07:56:30;98933.56;;;-3.04;100.00
77227;BME280;66234;47.642;19.144;2024-01-15T07:59:34;98938.06;;;-2.88;100.00
77227;BME280;66234;47.642;19.144;2024-01-15T08:02:38;98943.81;;;-2.85;100.00
77227;BME280;66234;47.642;19.144;2024-01-15T08:05:41;98950.06;;;-2.78;100.00
77227;BME280;66234;47.642;19.144;2024-01-15T08:08:44;98937.88;;;-2.69;100.00
77227;BME280;66234;47.642;19.144;2024-01-15T08:11:47;98941.50;;;-2.62;100.00
77227;BME280;66234;47.642;19.144;2024-01-15T08:14:51;98922.31;;;-2.37;100.00
77227;BME280;66234;47.642;19.144;2024-01-15T08:17:54;98925.78;;;-2.21;100.00
77227;BME280;66234;47.642;19.144;2024-01-15T08:20:56;98931.97;;;-1.80;100.00
77227;BME280;66234;47.642;19.144;2024-01-15T08:24:00;98933.78;;;-1.48;100.00
77227;BME280;66234;47.642;19.144;2024-01-15T08:27:03;98928.56;;;-1.16;97.07
77227;BME280;66234;47.642;19.144;2024-01-15T08:30:07;98919.13;;;-0.79;93.23
77227;BME280;66234;47.642;19.144;2024-01-15T08:33:10;98926.25;;;-0.41;89.55
77227;BME280;66234;47.642;19.144;2024-01-15T08:36:23;98919.09;;;-0.16;87.10
77227;BME280;66234;47.642;19.144;2024-01-15T08:39:29;98917.59;;;0.20;83.12
77227;BME280;66234;47.642;19.144;2024-01-15T08:42:31;98913.19;;;0.58;79.02
77227;BME280;66234;47.642;19.144;2024-01-15T08:45:34;98925.03;;;0.99;72.80
77227;BME280;66234;47.642;19.144;2024-01-15T08:48:37;98917.44;;;1.33;70.17
77227;BME280;66234;47.642;19.144;2024-01-15T08:51:39;98932.16;;;1.42;70.60
77227;BME280;66234;47.642;19.144;2024-01-15T08:54:42;98953.22;;;1.56;69.16
77227;BME280;66234;47.642;19.144;2024-01-15T08:57:45;98944.50;;;1.70;67.63
77227;BME280;66234;47.642;19.144;2024-01-15T09:00:48;98943.50;;;1.72;68.26
77227;BME280;66234;47.642;19.144;2024-01-15T09:03:50;98946.22;;;1.78;68.50
77227;BME280;66234;47.642;19.144;2024-01-15T09:06:53;98950.84;;;1.91;68.00
77227;BME280;66234;47.642;19.144;2024-01-15T09:09:56;98922.38;;;2.01;67.51
77227;BME280;66234;47.642;19.144;2024-01-15T09:12:59;98938.72;;;2.11;66.86
77227;BME280;66234;47.642;19.144;2024-01-15T09:16:03;98942.94;;;2.26;66.52
77227;BME280;66234;47.642;19.144;2024-01-15T09:19:06;98920.50;;;2.30;65.84
77227;BME280;66234;47.642;19.144;2024-01-15T09:22:09;98924.00;;;2.37;66.00
77227;BME280;66234;47.642;19.144;2024-01-15T09:25:12;98910.78;;;2.52;65.30
77227;BME280;66234;47.642;19.144;2024-01-15T09:28:15;98921.59;;;2.57;65.10
77227;BME280;66234;47.642;19.144;2024-01-15T09:31:18;98909.25;;;2.64;65.07
77227;BME280;66234;47.642;19.144;2024-01-15T09:34:22;98909.06;;;2.65;64.19
77227;BME280;66234;47.642;19.144;2024-01-15T09:37:25;98914.09;;;2.81;63.73
77227;BME280;66234;47.642;19.144;2024-01-15T09:40:46;98920.22;;;2.88;64.15
77227;BME280;66234;47.642;19.144;2024-01-15T09:43:49;98909.03;;;2.86;63.40
77227;BME280;66234;47.642;19.144;2024-01-15T09:46:52;98914.19;;;2.94;64.30
77227;BME280;66234;47.642;19.144;2024-01-15T09:49:56;98915.78;;;2.89;63.03
77227;BME280;66234;47.642;19.144;2024-01-15T09:53:01;98893.38;;;2.85;64.12
77227;BME280;66234;47.642;19.144;2024-01-15T09:56:04;98900.78;;;2.96;65.10
77227;BME280;66234;47.642;19.144;2024-01-15T09:59:08;98885.91;;;2.88;66.12
77227;BME280;66234;47.642;19.144;2024-01-15T10:02:13;98880.09;;;2.99;64.23
77227;BME280;66234;47.642;19.144;2024-01-15T10:05:19;98872.81;;;3.01;64.83
77227;BME280;66234;47.642;19.144;2024-01-15T10:08:23;98869.16;;;3.02;64.42
77227;BME280;66234;47.642;19.144;2024-01-15T10:11:27;98856.16;;;3.01;64.71
77227;BME280;66234;47.642;19.144;2024-01-15T10:14:30;98845.44;;;3.09;63.89
77227;BME280;66234;47.642;19.144;2024-01-15T10:17:36;98848.03;;;3.02;64.84
77227;BME280;66234;47.642;19.144;2024-01-15T10:20:42;98846.38;;;2.95;65.08
77227;BME280;66234;47.642;19.144;2024-01-15T10:23:45;98852.88;;;2.99;64.34
77227;BME280;66234;47.642;19.144;2024-01-15T10:26:48;98848.38;;;2.93;65.40
77227;BME280;66234;47.642;19.144;2024-01-15T10:29:50;98842.06;;;2.87;66.07
77227;BME280;66234;47.642;19.144;2024-01-15T10:33:00;98820.88;;;2.81;65.32
77227;BME280;66234;47.642;19.144;2024-01-15T10:36:09;98823.88;;;3.05;65.19
77227;BME280;66234;47.642;19.144;2024-01-15T10:39:13;98838.81;;;3.19;63.24
77227;BME280;66234;47.642;19.144;2024-01-15T10:42:16;98830.13;;;3.32;62.82
77227;BME280;66234;47.642;19.144;2024-01-15T10:45:21;98807.19;;;3.39;62.24
77227;BME280;66234;47.642;19.144;2024-01-15T10:48:24;98826.19;;;3.56;61.84
77227;BME280;66234;47.642;19.144;2024-01-15T10:51:29;98816.84;;;3.60;62.01
77227;BME280;66234;47.642;19.144;2024-01-15T10:54:32;98824.22;;;3.71;61.70
77227;BME280;66234;47.642;19.144;2024-01-15T10:57:36;98830.34;;;3.84;60.60
77227;BME280;66234;47.642;19.144;2024-01-15T11:00:39;98822.88;;;3.94;61.24
77227;BME280;66234;47.642;19.144;2024-01-15T11:03:43;98811.50;;;4.00;61.12
77227;BME280;66234;47.642;19.144;2024-01-15T11:06:50;98810.50;;;4.08;60.47
77227;BME280;66234;47.642;19.144;2024-01-15T11:09:53;98806.84;;;4.22;60.29
77227;BME280;66234;47.642;19.144;2024-01-15T11:12:56;98799.53;;;4.17;61.29
77227;BME280;66234;47.642;19.144;2024-01-15T11:16:06;98816.00;;;4.13;59.96
77227;BME280;66234;47.642;19.144;2024-01-15T11:19:12;98812.94;;;4.16;59.94
77227;BME280;66234;47.642;19.144;2024-01-15T11:25:36;98791.81;;;4.42;59.21
77227;BME280;66234;47.642;19.144;2024-01-15T11:28:49;98790.78;;;4.36;59.20
77227;BME280;66234;47.642;19.144;2024-01-15T11:35:00;98824.78;;;4.52;58.90
77227;BME280;66234;47.642;19.144;2024-01-15T11:38:05;98796.88;;;4.56;58.08
77227;BME280;66234;47.642;19.144;2024-01-15T11:41:15;98794.25;;;4.43;57.89
77227;BME280;66234;47.642;19.144;2024-01-15T11:44:20;98797.94;;;4.42;58.09
77227;BME280;66234;47.642;19.144;2024-01-15T11:47:45;98793.63;;;4.22;58.23
77227;BME280;66234;47.642;19.144;2024-01-15T11:50:57;98789.75;;;4.18;58.44
77227;BME280;66234;47.642;19.144;2024-01-15T11:54:02;98787.72;;;4.20;58.22
77227;BME280;66234;47.642;19.144;2024-01-15T11:57:14;98793.81;;;4.14;58.52
77227;BME280;66234;47.642;19.144;2024-01-15T12:00:22;98792.59;;;4.10;59.11
77227;BME280;66234;47.642;19.144;2024-01-15T12:03:26;98785.06;;;4.20;58.72
77227;BME280;66234;47.642;19.144;2024-01-15T12:06:32;98785.88;;;4.33;58.21
77227;BME280;66234;47.642;19.144;2024-01-15T12:09:35;98776.53;;;4.24;58.55
77227;BME280;66234;47.642;19.144;2024-01-15T12:13:08;98772.66;;;4.33;58.67
77227;BME280;66234;47.642;19.144;2024-01-15T12:16:12;98757.63;;;4.40;58.33
77227;BME280;66234;47.642;19.144;2024-01-15T12:19:15;98768.81;;;4.36;58.83
77227;BME280;66234;47.642;19.144;2024-01-15T12:22:18;98758.22;;;4.36;58.83
77227;BME280;66234;47.642;19.144;2024-01-15T12:25:23;98757.41;;;4.48;58.45
77227;BME280;66234;47.642;19.144;2024-01-15T12:28:27;98752.31;;;4.47;58.04
77227;BME280;66234;47.642;19.144;2024-01-15T12:31:30;98767.19;;;4.48;58.04
77227;BME280;66234;47.642;19.144;2024-01-15T12:34:33;98744.56;;;4.52;58.24
77227;BME280;66234;47.642;19.144;2024-01-15T12:37:37;98735.63;;;4.40;58.43
77227;BME280;66234;47.642;19.144;2024-01-15T12:40:39;98725.03;;;4.53;58.35
77227;BME280;66234;47.642;19.144;2024-01-15T12:43:42;98721.16;;;4.49;58.12
77227;BME280;66234;47.642;19.144;2024-01-15T12:46:45;98723.00;;;4.48;58.60
77227;BME280;66234;47.642;19.144;2024-01-15T12:49:51;98708.34;;;4.59;58.23
77227;BME280;66234;47.642;19.144;2024-01-15T12:53:07;98721.78;;;4.44;58.02
77227;BME280;66234;47.642;19.144;2024-01-15T12:56:10;98719.50;;;4.67;58.04
77227;BME280;66234;47.642;19.144;2024-01-15T12:59:12;98711.19;;;4.51;58.50
77227;BME280;66234;47.642;19.144;2024-01-15T13:02:16;98699.75;;;4.70;57.74
77227;BME280;66234;47.642;19.144;2024-01-15T13:05:22;98703.34;;;4.95;56.91
77227;BME280;66234;47.642;19.144;2024-01-15T13:08:25;98700.53;;;5.34;55.61
77227;BME280;66234;47.642;19.144;2024-01-15T13:11:34;98697.34;;;5.94;54.27
77227;BME280;66234;47.642;19.144;2024-01-15T13:14:37;98711.75;;;6.05;53.60
77227;BME280;66234;47.642;19.144;2024-01-15T13:17:39;98706.56;;;5.92;54.54
77227;BME280;66234;47.642;19.144;2024-01-15T13:20:42;98709.81;;;5.94;53.42
77227;BME280;66234;47.642;19.144;2024-01-15T13:23:45;98722.97;;;6.07;53.32
77227;BME280;66234;47.642;19.144;2024-01-15T13:26:48;98718.66;;;6.37;52.67
77227;BME280;66234;47.642;19.144;2024-01-15T13:29:52;98727.41;;;5.82;53.36
77227;BME280;66234;47.642;19.144;2024-01-15T13:33:01;98731.50;;;5.84;53.91
77227;BME280;66234;47.642;19.144;2024-01-15T13:36:07;98724.56;;;5.83;53.87
77227;BME280;66234;47.642;19.144;2024-01-15T13:43:51;98729.59;;;6.22;52.61
77227;BME280;66234;47.642;19.144;2024-01-15T13:47:27;98726.03;;;6.10;52.70
77227;BME280;66234;47.642;19.144;2024-01-15T13:50:30;98719.31;;;6.32;52.55
77227;BME280;66234;47.642;19.144;2024-01-15T13:53:33;98734.19;;;6.09;52.68
77227;BME280;66234;47.642;19.144;2024-01-15T13:56:36;98724.03;;;6.30;52.57
77227;BME280;66234;47.642;19.144;2024-01-15T13:59:38;98719.44;;;6.37;52.33
77227;BME280;66234;47.642;19.144;2024-01-15T14:02:41;98719.38;;;6.68;52.10
77227;BME280;66234;47.642;19.144;2024-01-15T14:05:44;98733.16;;;6.59;52.08
77227;BME280;66234;47.642;19.144;2024-01-15T14:08:47;98731.88;;;6.43;52.61
77227;BME280;66234;47.642;19.144;2024-01-15T14:11:49;98732.19;;;6.53;52.45
77227;BME280;66234;47.642;19.144;2024-01-15T14:14:52;98754.91;;;6.25;52.60
77227;BME280;66234;47.642;19.144;2024-01-15T14:17:55;98758.03;;;5.84;54.22
77227;BME280;66234;47.642;19.144;2024-01-15T14:20:57;98746.25;;;5.67;54.26
77227;BME280;66234;47.642;19.144;2024-01-15T14:24:02;98736.75;;;5.53;54.78
77227;BME280;66234;47.642;19.144;2024-01-15T14:27:06;98737.53;;;5.09;56.27
77227;BME280;66234;47.642;19.144;2024-01-15T14:30:10;98736.81;;;4.63;58.14
77227;BME280;66234;47.642;19.144;2024-01-15T14:33:15;98729.13;;;4.29;59.46
77227;BME280;66234;47.642;19.144;2024-01-15T14:36:19;98722.19;;;4.15;59.56
77227;BME280;66234;47.642;19.144;2024-01-15T14:39:22;98729.94;;;3.97;60.15
77227;BME280;66234;47.642;19.144;2024-01-15T14:42:25;98733.16;;;3.99;59.87
77227;BME280;66234;47.642;19.144;2024-01-15T14:45:28;98737.19;;;3.82;60.71
77227;BME280;66234;47.642;19.144;2024-01-15T14:48:31;98728.25;;;3.70;61.52
77227;BME280;66234;47.642;19.144;2024-01-15T14:51:34;98734.31;;;3.58;61.72
77227;BME280;66234;47.642;19.144;2024-01-15T14:54:37;98737.13;;;3.43;62.60
77227;BME280;66234;47.642;19.144;2024-01-15T14:57:40;98738.31;;;3.40;62.49
77227;BME280;66234;47.642;19.144;2024-01-15T15:00:43;98747.63;;;3.30;63.51
77227;BME280;66234;47.642;19.144;2024-01-15T15:03:45;98742.75;;;3.27;63.61
77227;BME280;66234;47.642;19.144;2024-01-15T15:06:48;98749.22;;;3.18;64.09
77227;BME280;66234;47.642;19.144;2024-01-15T15:09:51;98746.09;;;3.08;64.61
77227;BME280;66234;47.642;19.144;2024-01-15T15:12:54;98747.53;;;3.04;64.66
77227;BME280;66234;47.642;19.144;2024-01-15T15:15:57;98756.09;;;3.12;64.29
77227;BME280;66234;47.642;19.144;2024-01-15T15:19:00;98743.25;;;3.09;62.82
77227;BME280;66234;47.642;19.144;2024-01-15T15:22:03;98742.72;;;3.14;63.70
77227;BME280;66234;47.642;19.144;2024-01-15T15:25:06;98744.69;;;3.05;64.49
77227;BME280;66234;47.642;19.144;2024-01-15T15:28:11;98741.22;;;3.05;63.68
77227;BME280;66234;47.642;19.144;2024-01-15T15:31:14;98745.53;;;3.12;63.46
77227;BME280;66234;47.642;19.144;2024-01-15T15:34:17;98748.75;;;3.08;63.87
77227;BME280;66234;47.642;19.144;2024-01-15T15:37:20;98744.25;;;3.02;63.70
77227;BME280;66234;47.642;19.144;2024-01-15T15:40:23;98736.31;;;3.02;63.97
77227;BME280;66234;47.642;19.144;2024-01-15T15:43:27;98741.41;;;3.03;63.01
77227;BME280;66234;47.642;19.144;2024-01-15T15:46:31;98738.38;;;3.06;63.34
77227;BME280;66234;47.642;19.144;2024-01-15T15:49:33;98729.03;;;3.04;63.63
77227;BME280;66234;47.642;19.144;2024-01-15T15:52:36;98740.63;;;3.03;63.29
77227;BME280;66234;47.642;19.144;2024-01-15T15:55:39;98740.25;;;3.12;63.58
77227;BME280;66234;47.642;19.144;2024-01-15T15:58:42;98734.56;;;3.09;63.40
77227;BME280;66234;47.642;19.144;2024-01-15T16:01:44;98740.25;;;3.12;62.96
77227;BME280;66234;47.642;19.144;2024-01-15T16:04:47;98750.41;;;3.09;62.96
77227;BME280;66234;47.642;19.144;2024-01-15T16:07:50;98750.25;;;3.23;62.39
77227;BME280;66234;47.642;19.144;2024-01-15T16:10:53;98756.16;;;3.25;61.55